Time;durP1;ratioP1;P1;durP2;ratioP2;P2;SDS_P1;SDS_P2;PMS_P1;PMS_P2;Temp;Humidity;BMP_temperature;BMP_pressure;BME280_temperature;BME280_humidity;BME280_pressure;Samples;Min_cycle;Max_cycle;Signal;HPM_P1;HPM_P2
2021/04/02 00:02:07;;;;;;;138.55;39.35;;;;;;;3.80;100.00;100614.02;1506368;93;21223;-88
2021/04/02 00:04:33;;;;;;;145.77;37.70;;;;;;;3.73;100.00;100618.04;1463392;96;21339;-88
2021/04/02 00:06:59;;;;;;;128.87;37.30;;;;;;;3.72;100.00;100620.41;1507598;93;21089;-88
2021/04/02 00:09:25;;;;;;;137.88;38.83;;;;;;;3.70;100.00;100626.46;1507695;93;21183;-88
2021/04/02 00:11:50;;;;;;;134.78;37.83;;;;;;;3.60;100.00;100617.61;1507784;93;21525;-88
2021/04/02 00:14:16;;;;;;;129.95;38.45;;;;;;;3.49;100.00;100608.14;1507700;93;21209;-88
2021/04/02 00:16:42;;;;;;;136.12;37.70;;;;;;;3.43;100.00;100606.33;1507677;93;21205;-89
2021/04/02 00:19:08;;;;;;;125.40;37.48;;;;;;;3.43;100.00;100601.00;1501347;93;21720;-88
2021/04/02 00:21:34;;;;;;;131.80;38.45;;;;;;;3.42;100.00;100598.86;1487830;95;21125;-88
2021/04/02 00:24:00;;;;;;;127.72;38.17;;;;;;;3.35;100.00;100598.89;1487842;95;21301;-88
2021/04/02 00:26:26;;;;;;;125.95;36.83;;;;;;;3.33;100.00;100601.46;1487817;95;21206;-88
2021/04/02 00:28:54;;;;;;;133.65;37.45;;;;;;;3.28;100.00;100597.28;1511109;90;21656;-88
2021/04/02 00:31:21;;;;;;;117.85;34.03;;;;;;;3.25;100.00;100598.52;1547322;91;21236;-88
2021/04/02 00:33:47;;;;;;;133.70;36.35;;;;;;;3.24;100.00;100598.22;1552377;91;21199;-88
2021/04/02 00:36:13;;;;;;;118.47;34.88;;;;;;;3.16;100.00;100597.12;1571468;90;21742;-88
2021/04/02 00:38:39;;;;;;;130.80;35.15;;;;;;;3.14;100.00;100597.31;1571496;90;20953;-88
2021/04/02 00:41:10;;;;;;;120.67;34.83;;;;;;;3.13;100.00;100592.22;1571684;90;21175;-88
2021/04/02 00:43:39;;;;;;;114.10;33.65;;;;;;;3.13;100.00;100594.88;1571595;90;21207;-88
2021/04/02 00:46:07;;;;;;;119.10;35.28;;;;;;;3.14;100.00;100588.00;1571519;90;21194;-88
2021/04/02 00:48:34;;;;;;;123.38;36.77;;;;;;;3.17;100.00;100586.77;1571502;90;22479;-88
2021/04/02 00:51:05;;;;;;;135.40;37.45;;;;;;;3.14;100.00;100582.67;1551182;91;21227;-88
2021/04/02 00:53:35;;;;;;;132.63;36.65;;;;;;;3.16;100.00;100580.63;1571289;90;21247;-88
2021/04/02 00:56:04;;;;;;;115.50;34.60;;;;;;;3.13;100.00;100575.72;1568657;91;21367;-88
2021/04/02 00:58:32;;;;;;;120.87;35.92;;;;;;;3.12;100.00;100573.29;1571363;91;21279;-89
2021/04/02 01:01:00;;;;;;;131.40;37.88;;;;;;;3.04;100.00;100565.02;1571698;90;21229;-88
2021/04/02 01:03:29;;;;;;;130.75;37.13;;;;;;;3.03;100.00;100569.20;1571613;91;21183;-88
2021/04/02 01:06:02;;;;;;;132.63;38.08;;;;;;;3.02;100.00;100563.06;1571768;90;21774;-89
2021/04/02 01:08:31;;;;;;;;;;;;;;;3.02;100.00;100563.59;1628569;87;21156;-89
2021/04/02 01:11:02;;;;;;;117.25;35.73;;;;;;;2.94;100.00;100564.14;1626501;87;20235;-88
2021/04/02 01:13:38;;;;;;;125.75;37.40;;;;;;;2.98;100.00;100558.39;1709568;83;21148;-88
2021/04/02 01:16:20;;;;;;;124.53;35.80;;;;;;;2.98;100.00;100559.20;1709637;83;21135;-89
2021/04/02 01:18:54;;;;;;;124.07;35.95;;;;;;;2.96;100.00;100551.93;1628419;87;21203;-89
2021/04/02 01:21:37;;;;;;;118.75;36.23;;;;;;;2.88;100.00;100548.17;1628483;86;21218;-88
2021/04/02 01:24:11;;;;;;;110.10;34.38;;;;;;;2.85;100.00;100551.25;1625186;88;21697;-87
2021/04/02 01:26:58;;;;;;;111.32;34.58;;;;;;;2.80;100.00;100546.57;1550507;92;21842;-87
2021/04/02 01:29:56;;;;;;;105.63;31.25;;;;;;;2.79;100.00;100540.92;1550467;92;21611;-87
2021/04/02 01:32:30;;;;;;;98.82;28.90;;;;;;;2.79;100.00;100541.45;1550629;92;21227;-88
2021/04/02 01:35:01;;;;;;;103.07;29.45;;;;;;;2.79;100.00;100534.80;1538684;93;21209;-87
2021/04/02 01:37:36;;;;;;;89.55;28.23;;;;;;;2.81;100.00;100532.23;1490673;96;21738;-88
2021/04/02 01:40:06;;;;;;;93.35;28.80;;;;;;;2.84;100.00;100532.33;1490834;96;21290;-87
2021/04/02 01:42:35;;;;;;;90.20;29.90;;;;;;;2.83;100.00;100534.18;1490733;94;21261;-87
2021/04/02 01:45:05;;;;;;;86.60;26.95;;;;;;;2.86;100.00;100536.42;1490856;96;21144;-88
2021/04/02 01:47:32;;;;;;;91.63;27.62;;;;;;;2.89;100.00;100530.67;1490812;95;21197;-88
2021/04/02 01:49:59;;;;;;;109.03;31.95;;;;;;;2.89;100.00;100526.68;1490864;96;21126;-88
2021/04/02 01:52:27;;;;;;;117.85;33.60;;;;;;;2.89;100.00;100529.34;1490696;96;21272;-87
2021/04/02 01:54:55;;;;;;;85.97;25.08;;;;;;;2.93;100.00;100525.22;1490911;95;21210;-87
2021/04/02 01:57:22;;;;;;;82.72;25.95;;;;;;;2.92;100.00;100525.45;1503143;95;21140;-88
2021/04/02 01:59:50;;;;;;;98.50;29.40;;;;;;;2.91;100.00;100521.97;1503111;94;21263;-87
2021/04/02 02:02:18;;;;;;;102.45;30.37;;;;;;;2.92;100.00;100522.78;1484568;95;21784;-87
2021/04/02 02:04:45;;;;;;;112.15;32.70;;;;;;;2.94;100.00;100518.89;1503160;94;22338;-88
2021/04/02 02:07:13;;;;;;;125.97;33.55;;;;;;;2.95;100.00;100521.84;1502970;95;21280;-88
2021/04/02 02:09:45;;;;;;;133.65;34.58;;;;;;;2.98;100.00;100520.61;1503055;95;21286;-88
2021/04/02 02:12:15;;;;;;;126.72;35.73;;;;;;;3.03;100.00;100514.63;1502975;95;21640;-87
2021/04/02 02:14:47;;;;;;;117.72;33.78;;;;;;;3.07;100.00;100518.52;1503157;95;21316;-87
2021/04/02 02:17:17;;;;;;;126.95;34.85;;;;;;;3.06;100.00;100513.72;1534251;92;21452;-88
2021/04/02 02:19:44;;;;;;;130.12;33.53;;;;;;;3.05;100.00;100512.06;1558105;92;21189;-88
2021/04/02 02:22:12;;;;;;;134.67;35.83;;;;;;;3.05;100.00;100517.39;1558415;92;21115;-88
2021/04/02 02:24:38;;;;;;;123.18;34.30;;;;;;;3.05;100.00;100507.26;1558394;92;21136;-87
2021/04/02 02:27:07;;;;;;;132.05;37.30;;;;;;;3.06;100.00;100508.39;1558327;92;21613;-88
2021/04/02 02:29:34;;;;;;;120.35;33.70;;;;;;;3.06;100.00;100513.72;1558277;90;22035;-88
2021/04/02 02:32:01;;;;;;;128.68;33.38;;;;;;;3.01;100.00;100501.55;1581365;89;22344;-88
2021/04/02 02:34:27;;;;;;;122.75;33.18;;;;;;;2.99;100.00;100510.25;1598839;88;21138;-88
2021/04/02 02:36:54;;;;;;;116.80;35.03;;;;;;;2.92;100.00;100502.30;1598996;89;20960;-88
2021/04/02 02:39:21;;;;;;;121.97;35.83;;;;;;;2.90;100.00;100502.20;1598939;89;21226;-87
2021/04/02 02:41:47;;;;;;;125.38;38.35;;;;;;;2.91;100.00;100497.17;1692669;83;21237;-88
2021/04/02 02:44:14;;;;;;;118.72;34.48;;;;;;;2.93;100.00;100494.61;1702091;84;21144;-88
2021/04/02 02:46:40;;;;;;;118.22;34.23;;;;;;;2.90;100.00;100497.70;1702057;84;21668;-88
2021/04/02 02:49:17;;;;;;;126.90;37.40;;;;;;;2.90;100.00;100487.57;1702150;84;21172;-88
2021/04/02 02:51:45;;;;;;;123.62;36.10;;;;;;;2.90;100.00;100488.37;1635029;87;21211;-87
2021/04/02 02:54:18;;;;;;;123.33;36.00;;;;;;;2.89;100.00;100489.94;1635089;87;21217;-87
2021/04/02 02:56:47;;;;;;;119.05;34.60;;;;;;;2.91;100.00;100491.86;1635247;87;21190;-86
2021/04/02 02:59:18;;;;;;;124.85;34.48;;;;;;;2.91;100.00;100491.86;1635050;87;21683;-88
2021/04/02 03:01:46;;;;;;;127.92;36.42;;;;;;;2.86;100.00;100490.36;1635021;87;21713;-88
2021/04/02 03:04:16;;;;;;;130.40;38.63;;;;;;;2.77;100.00;100492.97;1635084;87;21183;-88
2021/04/02 03:06:45;;;;;;;134.65;36.83;;;;;;;2.69;100.00;100488.69;1635074;87;22175;-88
2021/04/02 03:09:15;;;;;;;122.75;34.75;;;;;;;2.67;100.00;100495.53;1635108;87;21242;-88
2021/04/02 03:11:43;;;;;;;129.50;38.88;;;;;;;2.69;100.00;100492.67;1635086;87;21237;-87
2021/04/02 03:14:19;;;;;;;136.50;38.35;;;;;;;2.70;100.00;100484.47;1635089;87;21283;-88
2021/04/02 03:16:49;;;;;;;127.60;35.05;;;;;;;2.71;100.00;100487.45;1635050;87;21194;-88
2021/04/02 03:19:19;;;;;;;122.95;35.95;;;;;;;2.71;100.00;100487.45;1635084;87;21352;-88
2021/04/02 03:21:48;;;;;;;126.15;34.20;;;;;;;2.73;100.00;100480.57;1635043;87;21694;-88
2021/04/02 03:24:15;;;;;;;118.50;34.00;;;;;;;2.71;100.00;100470.16;1635143;87;21207;-88
2021/04/02 03:26:46;;;;;;;107.15;34.67;;;;;;;2.71;100.00;100472.82;1635113;87;21695;-88
2021/04/02 03:29:14;;;;;;;121.05;33.42;;;;;;;2.75;100.00;100477.72;1634055;87;21368;-88
2021/04/02 03:31:42;;;;;;;113.42;35.23;;;;;;;2.76;100.00;100468.17;1632929;87;21991;-88
2021/04/02 03:34:12;;;;;;;121.80;35.20;;;;;;;2.77;100.00;100467.69;1632947;87;21182;-88
2021/04/02 03:36:42;;;;;;;136.62;38.17;;;;;;;2.82;100.00;100461.20;1632969;87;21688;-88
2021/04/02 03:39:13;;;;;;;156.95;41.63;;;;;;;2.92;100.00;100457.06;1632985;87;21577;-88
2021/04/02 03:41:42;;;;;;;163.03;42.35;;;;;;;3.01;100.00;100452.83;1633039;87;21128;-88
2021/04/02 03:44:12;;;;;;;162.92;42.17;;;;;;;3.07;100.00;100457.30;1633059;87;21241;-88
2021/04/02 03:46:41;;;;;;;157.18;42.73;;;;;;;3.17;100.00;100455.77;1632930;87;21118;-88
2021/04/02 03:49:11;;;;;;;154.05;39.25;;;;;;;3.27;100.00;100450.00;1679560;84;21140;-89
2021/04/02 03:51:40;;;;;;;134.35;37.95;;;;;;;3.38;100.00;100448.47;1704774;84;21175;-89
2021/04/02 03:54:07;;;;;;;139.75;37.15;;;;;;;3.49;100.00;100447.78;1707184;83;21131;-88
2021/04/02 03:56:36;;;;;;;134.52;35.58;;;;;;;3.64;100.00;100448.79;1707112;83;21995;-89
2021/04/02 03:59:04;;;;;;;139.68;36.55;;;;;;;3.82;100.00;100448.86;1707005;83;21159;-89
2021/04/02 04:01:35;;;;;;;124.00;33.70;;;;;;;4.01;100.00;100447.55;1707122;83;21208;-89
2021/04/02 04:04:02;;;;;;;134.85;35.25;;;;;;;4.20;100.00;100448.38;1707109;83;21180;-89
2021/04/02 04:06:30;;;;;;;115.75;31.85;;;;;;;4.42;100.00;100443.44;1707049;84;21612;-89
2021/04/02 04:09:00;;;;;;;112.70;32.15;;;;;;;4.65;100.00;100446.76;1707167;84;21939;-89
2021/04/02 04:11:29;;;;;;;106.05;29.42;;;;;;;4.91;100.00;100449.59;1706928;83;21634;-89
2021/04/02 04:13:57;;;;;;;103.17;29.37;;;;;;;5.27;100.00;100446.55;1707263;83;21147;-89
2021/04/02 04:16:25;;;;;;;93.92;27.07;;;;;;;5.79;100.00;100438.17;1707054;83;21160;-90
2021/04/02 04:18:58;;;;;;;89.72;27.50;;;;;;;6.51;100.00;100442.46;1707231;83;21184;-89
2021/04/02 04:21:29;;;;;;;86.95;26.57;;;;;;;7.53;100.00;100430.94;1705540;84;21994;-90
2021/04/02 04:23:57;;;;;;;83.65;26.57;;;;;;;8.38;100.00;100429.79;1704780;84;21140;-90
2021/04/02 04:26:27;;;;;;;77.62;24.20;;;;;;;9.41;100.00;100427.66;1707179;84;21132;-91
2021/04/02 04:28:54;;;;;;;73.45;23.60;;;;;;;10.34;100.00;100425.86;1705958;83;21212;-91
2021/04/02 04:31:22;;;;;;;61.83;22.87;;;;;;;11.11;100.00;100422.06;1702204;83;21168;-91
2021/04/02 04:33:50;;;;;;;74.00;23.57;;;;;;;11.91;100.00;100422.38;1702564;83;21404;-90
2021/04/02 04:36:18;;;;;;;62.50;22.42;;;;;;;12.79;100.00;100422.86;1702326;83;21135;-90
2021/04/02 04:38:45;;;;;;;66.00;23.52;;;;;;;13.49;100.00;100418.64;1702138;83;21160;-90
2021/04/02 04:41:14;;;;;;;58.00;23.73;;;;;;;14.91;93.88;100426.31;1702252;83;21231;-90
2021/04/02 04:43:42;;;;;;;63.17;22.13;;;;;;;14.91;93.88;100426.31;1635035;87;21683;-90
2021/04/02 04:46:09;;;;;;;66.22;22.75;;;;;;;15.65;84.51;100415.12;1613341;87;21223;-90
2021/04/02 04:48:35;;;;;;;57.85;21.12;;;;;;;16.45;78.20;100409.59;1635209;86;21602;-90
2021/04/02 04:51:04;;;;;;;57.10;22.60;;;;;;;16.89;68.38;100408.13;1609008;89;21170;-90
2021/04/02 04:53:31;;;;;;;57.67;21.33;;;;;;;17.45;65.61;100404.08;1609639;89;21217;-91
2021/04/02 04:56:04;;;;;;;54.25;20.80;;;;;;;17.78;60.96;100397.01;1609871;87;21631;-90
2021/04/02 04:58:33;;;;;;;48.28;19.60;;;;;;;18.53;60.31;100398.73;1609325;89;21686;-90
2021/04/02 05:01:04;;;;;;;57.20;21.65;;;;;;;19.10;55.13;100391.59;1609344;87;21274;-91
2021/04/02 05:03:32;;;;;;;46.83;20.75;;;;;;;19.79;52.32;100402.41;1609275;89;21677;-90
2021/04/02 05:06:00;;;;;;;54.80;19.75;;;;;;;19.34;47.30;100402.01;1608896;89;21629;-90
2021/04/02 05:08:34;;;;;;;48.40;19.70;;;;;;;20.27;49.97;100396.37;1609086;88;21622;-90
2021/04/02 05:11:01;;;;;;;52.27;20.88;;;;;;;20.96;47.35;100395.14;1603721;89;21224;-91
2021/04/02 05:13:31;;;;;;;46.80;19.57;;;;;;;21.51;44.25;100397.56;1608955;89;21190;-91
2021/04/02 05:15:58;;;;;;;53.13;21.10;;;;;;;22.07;42.29;100392.18;1625609;86;21623;-90
2021/04/02 05:18:28;;;;;;;52.95;19.90;;;;;;;22.53;40.52;100388.73;1635445;87;21242;-91
2021/04/02 05:20:54;;;;;;;40.85;19.40;;;;;;;23.08;39.11;100390.80;1635207;87;21210;-90
2021/04/02 05:23:20;;;;;;;42.83;19.77;;;;;;;23.52;36.81;100394.17;1635144;87;21327;-90
2021/04/02 05:25:46;;;;;;;45.78;19.62;;;;;;;23.27;35.41;100394.30;1635284;87;21741;-90
2021/04/02 05:28:12;;;;;;;48.48;19.25;;;;;;;24.45;33.67;100396.54;1634953;87;21691;-90
2021/04/02 05:30:38;;;;;;;42.43;19.62;;;;;;;24.23;34.46;100400.12;1629544;87;21147;-90
2021/04/02 05:33:05;;;;;;;48.85;19.52;;;;;;;24.59;33.38;100401.55;1606789;88;21050;-90
2021/04/02 05:35:32;;;;;;;40.88;20.15;;;;;;;24.78;32.99;100399.42;1628408;88;21230;-90
2021/04/02 05:37:58;;;;;;;66.42;20.50;;;;;;;24.31;31.71;100397.55;1628506;88;21190;-89
2021/04/02 05:40:25;;;;;;;47.65;20.10;;;;;;;25.82;30.52;100391.24;1665155;83;21736;-89
2021/04/02 05:43:27;;;;;;;43.10;20.68;;;;;;;26.27;29.64;100386.86;1709686;83;21180;-90
2021/04/02 05:45:53;;;;;;;49.88;21.60;;;;;;;26.58;28.60;100380.80;1709433;83;21609;-90
2021/04/02 05:48:20;;;;;;;49.35;21.60;;;;;;;25.67;31.01;100379.13;1709635;83;21219;-89
2021/04/02 05:50:47;;;;;;;57.17;22.70;;;;;;;26.43;28.97;100381.16;1709727;83;21116;-88
2021/04/02 05:53:13;;;;;;;38.45;20.17;;;;;;;27.58;27.56;100374.49;1683255;83;21140;-86
2021/04/02 05:55:43;;;;;;;45.30;21.90;;;;;;;27.11;27.81;100382.86;1683347;83;21067;-87
2021/04/02 05:58:12;;;;;;;40.23;20.95;;;;;;;26.82;29.45;100380.92;1709771;83;21137;-90
2021/04/02 06:00:40;;;;;;;51.13;20.82;;;;;;;27.86;27.74;100377.36;1709597;83;21558;-89
2021/04/02 06:03:08;;;;;;;45.33;21.00;;;;;;;28.36;26.52;100377.73;1709603;83;21647;-88
2021/04/02 06:05:35;;;;;;;49.48;22.10;;;;;;;28.72;26.84;100377.36;1709676;83;21132;-89
2021/04/02 06:08:04;;;;;;;45.05;21.62;;;;;;;29.60;24.71;100371.11;1709583;83;21123;-89
2021/04/02 06:10:30;;;;;;;46.53;21.05;;;;;;;29.79;24.19;100377.49;1709690;83;21180;-89
2021/04/02 06:12:57;;;;;;;44.50;21.80;;;;;;;29.36;26.47;100370.48;1709569;83;21975;-89
2021/04/02 06:15:23;;;;;;;43.30;21.85;;;;;;;29.89;26.37;100365.61;1709588;83;21188;-89
2021/04/02 06:18:11;;;;;;;48.68;23.20;;;;;;;30.77;24.37;100366.64;1709697;83;21171;-90
2021/04/02 06:20:44;;;;;;;46.50;22.00;;;;;;;31.00;23.97;100366.75;1709818;83;21061;-89
2021/04/02 06:23:23;;;;;;;46.25;22.70;;;;;;;31.31;23.69;100363.61;1706653;83;21608;-88
2021/04/02 06:25:59;;;;;;;43.68;23.62;;;;;;;31.91;22.76;100358.83;1709760;83;21212;-88
2021/04/02 06:28:31;;;;;;;45.48;22.13;;;;;;;32.30;21.20;100360.47;1709519;83;21196;-88
2021/04/02 06:31:08;;;;;;;46.33;23.07;;;;;;;31.49;24.17;100361.34;1707568;83;21021;-88
2021/04/02 06:33:44;;;;;;;47.38;22.25;;;;;;;31.65;23.35;100356.02;1689879;84;21188;-88
2021/04/02 06:36:28;;;;;;;40.25;21.48;;;;;;;31.12;23.90;100355.18;1667697;84;21244;-88
2021/04/02 06:38:59;;;;;;;42.08;21.77;;;;;;;32.47;20.92;100361.49;1689988;84;21860;-87
2021/04/02 06:41:27;;;;;;;41.48;21.70;;;;;;;33.13;21.93;100358.31;1689973;84;21639;-87
2021/04/02 06:44:00;;;;;;;35.17;18.98;;;;;;;33.59;21.12;100351.27;1690017;84;21151;-87
2021/04/02 06:46:33;;;;;;;38.67;19.20;;;;;;;34.41;20.19;100346.84;1581632;90;21201;-88
2021/04/02 06:49:15;;;;;;;40.48;17.95;;;;;;;34.09;19.64;100344.85;1581869;90;21737;-87
2021/04/02 06:51:49;;;;;;;;;;;;;;;33.96;19.61;100343.84;1583938;90;21234;-87
2021/04/02 06:54:18;;;;;;;35.35;17.57;;;;;;;33.57;18.66;100355.09;1581598;89;20265;-87
2021/04/02 06:57:08;;;;;;;32.53;17.50;;;;;;;33.65;20.57;100350.16;1581560;90;21246;-87
2021/04/02 06:59:35;;;;;;;31.75;18.80;;;;;;;33.35;19.68;100346.20;1581595;90;21190;-88
2021/04/02 07:02:04;;;;;;;32.48;20.27;;;;;;;34.21;20.14;100337.02;1581653;90;21254;-88
2021/04/02 07:04:33;;;;;;;34.78;18.85;;;;;;;35.82;17.70;100334.94;1559658;92;21977;-86
2021/04/02 07:07:02;;;;;;;28.92;16.82;;;;;;;35.38;18.49;100323.97;1559801;92;21308;-86
2021/04/02 07:09:31;;;;;;;24.57;14.05;;;;;;;35.38;18.49;100323.97;1559980;92;21238;-86
2021/04/02 07:12:02;;;;;;;24.63;13.20;;;;;;;35.85;17.28;100325.64;1576799;91;21103;-86
2021/04/02 07:14:31;;;;;;;25.35;14.10;;;;;;;36.42;16.62;100310.71;1577397;91;21198;-87
2021/04/02 07:16:57;;;;;;;31.87;13.72;;;;;;;35.93;17.43;100317.22;1577389;91;21178;-87
2021/04/02 07:19:24;;;;;;;20.75;12.13;;;;;;;35.77;17.06;100311.03;1583248;90;21722;-86
2021/04/02 07:21:50;;;;;;;22.65;11.18;;;;;;;35.64;16.76;100310.94;1583527;90;21179;-87
2021/04/02 07:24:20;;;;;;;20.15;11.90;;;;;;;35.91;17.62;100315.46;1583499;90;21197;-86
2021/04/02 07:26:51;;;;;;;26.73;10.58;;;;;;;36.90;15.84;100311.09;1580270;90;21187;-86
2021/04/02 07:29:20;;;;;;;22.25;10.95;;;;;;;37.32;15.28;100310.98;1583460;89;21749;-86
2021/04/02 07:31:49;;;;;;;35.10;11.18;;;;;;;37.11;15.16;100313.88;1577074;91;21334;-86
2021/04/02 07:34:17;;;;;;;19.75;11.05;;;;;;;35.62;15.78;100306.41;1576862;91;21200;-86
2021/04/02 07:36:47;;;;;;;22.98;11.15;;;;;;;35.46;16.40;100304.97;1577142;91;21194;-85
2021/04/02 07:39:15;;;;;;;18.95;10.70;;;;;;;35.77;16.17;100304.61;1556680;91;21242;-85
2021/04/02 07:41:50;;;;;;;22.37;9.38;;;;;;;34.37;16.70;100302.93;1574160;91;21183;-87
2021/04/02 07:44:18;;;;;;;18.52;9.73;;;;;;;35.88;15.66;100305.91;1620267;87;21072;-86
2021/04/02 07:47:09;;;;;;;19.55;11.30;;;;;;;34.08;16.57;100276.12;1626365;87;21698;-86
2021/04/02 07:49:54;;;;;;;20.25;11.40;;;;;;;33.83;16.78;100294.75;1580597;89;21281;-86
2021/04/02 07:52:39;;;;;;;19.32;9.75;;;;;;;34.60;17.04;100297.11;1589778;90;21187;-85
2021/04/02 07:55:18;;;;;;;19.05;10.58;;;;;;;35.66;15.78;100301.48;1589729;90;21280;-86
2021/04/02 07:57:58;;;;;;;19.40;11.50;;;;;;;35.83;15.74;100299.45;1589733;90;21251;-86
2021/04/02 08:00:28;;;;;;;22.87;11.88;;;;;;;35.81;15.75;100296.91;1594435;86;21223;-85
2021/04/02 08:03:16;;;;;;;25.02;13.60;;;;;;;35.32;16.11;100296.29;1566476;90;21696;-83
2021/04/02 08:06:10;;;;;;;28.75;13.10;;;;;;;36.40;15.20;100299.91;1587065;89;21267;-83
2021/04/02 08:08:47;;;;;;;39.53;13.18;;;;;;;35.93;16.34;100301.79;1587285;89;21252;-88
2021/04/02 08:11:26;;;;;;;23.67;12.55;;;;;;;37.28;14.95;100299.09;1514105;94;21732;-90
2021/04/02 08:14:04;;;;;;;22.75;11.83;;;;;;;36.47;15.69;100289.87;1511957;94;21593;-86
2021/04/02 08:16:41;;;;;;;19.12;11.88;;;;;;;37.05;15.13;100288.36;1514312;94;21714;-87
2021/04/02 08:19:18;;;;;;;27.05;11.30;;;;;;;37.68;14.16;100287.32;1514244;94;21311;-86
2021/04/02 08:22:02;;;;;;;16.02;10.53;;;;;;;38.23;13.53;100286.39;1399430;102;21311;-89
2021/04/02 08:24:31;;;;;;;25.65;12.50;;;;;;;37.28;14.07;100288.63;1399150;102;21312;-90
2021/04/02 08:26:58;;;;;;;22.82;12.10;;;;;;;36.87;14.37;100287.33;1401665;101;21716;-89
2021/04/02 08:29:27;;;;;;;17.52;9.78;;;;;;;37.38;13.97;100276.06;1378466;104;21749;-90
2021/04/02 08:32:01;;;;;;;17.57;9.95;;;;;;;37.56;13.79;100276.90;1378539;104;21682;-90
2021/04/02 08:34:31;;;;;;;20.95;11.55;;;;;;;36.30;15.14;100264.53;1372915;104;21347;-91
2021/04/02 08:37:00;;;;;;;21.20;9.85;;;;;;;36.08;15.11;100270.73;1372818;104;21258;-91
2021/04/02 08:39:26;;;;;;;21.90;10.88;;;;;;;36.04;14.83;100264.45;1372851;104;21633;-90
2021/04/02 08:42:01;;;;;;;17.87;11.03;;;;;;;36.42;15.07;100266.58;1372720;104;21345;-90
2021/04/02 08:44:40;;;;;;;18.57;10.30;;;;;;;35.46;15.72;100255.30;1373336;104;21289;-92
2021/04/02 08:47:16;;;;;;;20.37;12.33;;;;;;;36.15;15.57;100218.64;1372875;104;21291;-92
2021/04/02 08:49:51;;;;;;;19.95;12.00;;;;;;;36.15;15.57;100218.64;1353295;106;21348;-90
2021/04/02 08:52:26;;;;;;;23.22;12.28;;;;;;;37.40;14.50;100237.83;1353579;102;21292;-91
2021/04/02 08:55:03;;;;;;;21.62;11.40;;;;;;;37.44;14.32;100234.89;1353307;106;21326;-90
2021/04/02 08:57:32;;;;;;;16.65;10.18;;;;;;;37.10;14.36;100226.60;1353445;106;21277;-91
2021/04/02 09:00:03;;;;;;;19.87;9.65;;;;;;;37.10;14.36;100226.60;1365532;104;21383;-90
2021/04/02 09:02:31;;;;;;;22.95;10.90;;;;;;;36.70;14.52;100225.62;1378692;102;21383;-92
2021/04/02 09:05:00;;;;;;;27.85;11.22;;;;;;;35.10;15.78;100221.00;1376151;104;21720;-92
2021/04/02 09:07:26;;;;;;;23.75;9.63;;;;;;;35.38;15.60;100218.86;1398697;98;21284;-91
2021/04/02 09:09:52;;;;;;;17.40;9.25;;;;;;;35.22;15.45;100216.87;1459830;98;21047;-91
2021/04/02 09:12:20;;;;;;;19.92;9.60;;;;;;;36.57;14.57;100210.81;1459490;98;21238;-91
2021/04/02 09:14:50;;;;;;;24.47;10.23;;;;;;;35.13;15.75;100218.11;1459392;97;21334;-91
2021/04/02 09:17:23;;;;;;;18.07;8.98;;;;;;;35.87;15.00;100214.59;1459727;98;21590;-92
2021/04/02 09:19:50;;;;;;;23.80;10.75;;;;;;;35.01;15.89;100216.77;1562187;91;21190;-91
2021/04/02 09:22:17;;;;;;;16.65;9.05;;;;;;;34.75;16.07;100213.59;1569999;91;21694;-93
2021/04/02 09:24:45;;;;;;;19.67;8.53;;;;;;;35.82;15.61;100217.14;1569841;91;21189;-94
2021/04/02 09:27:14;;;;;;;21.77;10.58;;;;;;;34.96;15.26;100196.89;1569398;91;21189;-93
2021/04/02 09:29:56;;;;;;;13.08;7.30;;;;;;;34.79;16.22;100212.89;1569466;90;21387;-92
2021/04/02 09:32:28;;;;;;;13.58;8.10;;;;;;;34.64;15.52;100207.45;1578768;90;28247;-93
2021/04/02 09:35:02;;;;;;;19.62;8.30;;;;;;;34.56;16.04;100205.41;1570988;91;21140;-89
2021/04/02 09:37:30;;;;;;;14.58;7.50;;;;;;;33.57;16.50;100199.20;1554774;92;21684;-94
2021/04/02 09:40:02;;;;;;;24.15;9.78;;;;;;;33.96;16.31;100204.64;1554983;90;21234;-94
2021/04/02 09:42:28;;;;;;;17.30;7.35;;;;;;;33.65;16.48;100201.44;1555526;92;21142;-96
2021/04/02 09:45:00;;;;;;;20.30;8.55;;;;;;;33.39;15.81;100198.88;1554901;92;21232;-95
2021/04/02 09:47:26;;;;;;;19.43;7.53;;;;;;;33.79;15.61;100193.36;1508394;95;21323;-94
2021/04/02 09:49:52;;;;;;;20.68;8.23;;;;;;;31.69;17.34;100202.16;1511023;95;21270;-94
2021/04/02 09:52:19;;;;;;;18.27;8.08;;;;;;;32.01;17.17;100196.25;1510665;95;21025;-94
2021/04/02 09:54:45;;;;;;;15.08;7.30;;;;;;;31.13;17.72;100183.36;1510838;95;21695;-95
2021/04/02 09:57:11;;;;;;;17.57;7.00;;;;;;;30.80;17.91;100180.61;1510790;95;21024;-94
2021/04/02 09:59:38;;;;;;;19.27;7.10;;;;;;;30.41;18.11;100176.05;1510775;95;21214;-93
2021/04/02 10:02:05;;;;;;;15.18;7.42;;;;;;;29.88;19.02;100177.83;1510661;95;21459;-94
2021/04/02 10:04:31;;;;;;;25.72;9.18;;;;;;;30.03;17.93;100171.63;1510795;95;21293;-93
2021/04/02 10:06:57;;;;;;;21.07;7.55;;;;;;;28.61;19.83;100171.89;1510632;93;21232;-96
2021/04/02 10:09:25;;;;;;;62.23;10.32;;;;;;;28.37;19.26;100176.16;1511350;95;21670;-95
2021/04/02 10:11:51;;;;;;;15.53;6.62;;;;;;;27.48;19.57;100170.95;1506015;93;21210;-94
2021/04/02 10:14:19;;;;;;;13.88;5.47;;;;;;;27.03;20.20;100183.43;1502494;95;21209;-95
2021/04/02 10:16:46;;;;;;;12.63;6.00;;;;;;;27.28;19.33;100173.17;1502552;95;21635;-95
2021/04/02 10:19:14;;;;;;;16.82;5.67;;;;;;;26.42;19.66;100180.02;1502946;95;21757;-95
2021/04/02 10:21:43;;;;;;;13.25;5.40;;;;;;;25.57;20.04;100170.00;1502565;95;21280;-95
2021/04/02 10:24:11;;;;;;;12.05;5.10;;;;;;;25.15;20.67;100174.48;1510390;95;21306;-95
2021/04/02 10:26:38;;;;;;;11.10;5.42;;;;;;;24.77;21.46;100163.55;1511121;95;21254;-93
2021/04/02 10:29:05;;;;;;;16.12;5.75;;;;;;;24.60;21.99;100164.23;1511918;94;21217;-94
2021/04/02 10:31:32;;;;;;;15.32;5.35;;;;;;;24.10;22.60;100159.09;1512670;92;21250;-96
2021/04/02 10:33:58;;;;;;;11.43;5.60;;;;;;;23.51;23.42;100164.27;1523114;93;21737;-96
2021/04/02 10:36:24;;;;;;;16.15;4.87;;;;;;;23.79;23.48;100164.12;1542047;91;21248;-95
2021/04/02 10:38:51;;;;;;;16.30;5.58;;;;;;;23.69;23.33;100159.16;1542196;91;21218;-94
2021/04/02 10:41:17;;;;;;;8.80;4.90;;;;;;;23.45;24.35;100155.48;1541824;91;21252;-94
2021/04/02 10:43:44;;;;;;;12.30;5.20;;;;;;;23.35;24.65;100145.84;1561452;88;21179;-90
2021/04/02 10:46:11;;;;;;;13.18;4.90;;;;;;;22.95;25.10;100152.91;1624751;88;21234;-92
2021/04/02 10:48:38;;;;;;;15.78;5.45;;;;;;;23.11;24.90;100147.40;1625809;88;21195;-93
2021/04/02 10:51:04;;;;;;;14.53;5.95;;;;;;;23.21;24.25;100137.25;1625090;88;21228;-91
2021/04/02 10:53:30;;;;;;;18.23;5.70;;;;;;;22.97;23.98;100136.05;1625220;88;21487;-90
2021/04/02 10:56:00;;;;;;;16.20;5.20;;;;;;;21.86;25.91;100140.66;1603401;88;21039;-92
2021/04/02 10:58:24;;;;;;;15.98;5.03;;;;;;;22.28;25.37;100140.89;1624850;88;21159;-92
2021/04/02 11:00:50;;;;;;;13.43;5.12;;;;;;;22.55;24.40;100126.33;1624881;88;21042;-91
2021/04/02 11:03:18;;;;;;;15.95;5.50;;;;;;;21.82;25.26;100130.14;1624893;88;21267;-91
2021/04/02 11:05:43;;;;;;;19.52;5.80;;;;;;;22.16;25.04;100126.61;1575815;91;21234;-87
2021/04/02 11:08:09;;;;;;;14.70;6.12;;;;;;;22.09;25.29;100118.16;1577074;91;21027;-91
2021/04/02 11:10:36;;;;;;;17.27;5.60;;;;;;;21.73;25.97;100119.30;1577277;91;21019;-91
2021/04/02 11:13:02;;;;;;;16.80;6.33;;;;;;;21.89;25.23;100114.48;1576840;91;21308;-92
2021/04/02 11:15:28;;;;;;;15.68;6.05;;;;;;;22.01;25.04;100111.69;1577099;91;21633;-93
2021/04/02 11:17:54;;;;;;;14.90;5.45;;;;;;;21.27;26.58;100105.55;1577035;91;21744;-91
2021/04/02 11:20:22;;;;;;;10.78;4.40;;;;;;;21.52;25.46;100112.61;1594122;86;21187;-91
2021/04/02 11:22:49;;;;;;;10.63;4.05;;;;;;;21.54;25.69;100112.27;1656229;86;21191;-91